Time;durP1;ratioP1;P1;durP2;ratioP2;P2;SDS_P1;SDS_P2;PMS_P1;PMS_P2;Temp;Humidity;BMP_temperature;BMP_pressure;BME280_temperature;BME280_humidity;BME280_pressure;Samples;Min_cycle;Max_cycle;Signal;HPM_P1;HPM_P2
2023/05/13 00:01:23;;;;;;;11.75;6.32;;;;;;;;;;5106196;28;20036;-68
2023/05/13 00:03:49;;;;;;;9.68;6.20;;;;;;;;;;5106895;27;20405;-68
2023/05/13 00:06:14;;;;;;;10.23;6.63;;;;;;;;;;5104485;27;20067;-69
2023/05/13 00:08:39;;;;;;;9.18;6.45;;;;;;;;;;5096092;27;20028;-69
2023/05/13 00:11:05;;;;;;;10.68;7.10;;;;;;;;;;5100185;28;20031;-69
2023/05/13 00:13:30;;;;;;;8.75;6.55;;;;;;;;;;5106421;28;20405;-69
2023/05/13 00:15:55;;;;;;;10.75;6.38;;;;;;;;;;5097750;28;20093;-69
2023/05/13 00:18:21;;;;;;;11.55;7.00;;;;;;;;;;5094444;28;20085;-69
2023/05/13 00:20:46;;;;;;;9.52;6.75;;;;;;;;;;5105420;27;20034;-69
2023/05/13 00:23:12;;;;;;;11.30;7.32;;;;;;;;;;5106325;27;20046;-69
2023/05/13 00:25:37;;;;;;;11.52;7.38;;;;;;;;;;5105488;27;20102;-68
2023/05/13 00:28:03;;;;;;;12.52;7.35;;;;;;;;;;5106451;27;20508;-69
2023/05/13 00:30:29;;;;;;;12.07;7.60;;;;;;;;;;5094377;27;20031;-69
2023/05/13 00:32:54;;;;;;;12.32;8.13;;;;;;;;;;5106021;27;20183;-69
2023/05/13 00:35:20;;;;;;;12.90;8.00;;;;;;;;;;5105418;27;20081;-69
2023/05/13 00:37:45;;;;;;;12.38;8.23;;;;;;;;;;5105601;27;20106;-69
2023/05/13 00:40:18;;;;;;;13.02;8.20;;;;;;;;;;5098430;28;20054;-69
2023/05/13 00:42:43;;;;;;;13.10;8.75;;;;;;;;;;5094214;28;20038;-69
2023/05/13 00:45:09;;;;;;;13.73;9.18;;;;;;;;;;5108079;27;20040;-69
2023/05/13 00:47:35;;;;;;;14.75;9.07;;;;;;;;;;5113563;28;20036;-69
2023/05/13 00:50:00;;;;;;;14.90;9.18;;;;;;;;;;5111139;27;20427;-69
2023/05/13 00:52:26;;;;;;;14.98;9.20;;;;;;;;;;5098010;27;20023;-69
2023/05/13 00:54:51;;;;;;;20.40;10.65;;;;;;;;;;5102858;27;20028;-69
2023/05/13 00:57:17;;;;;;;16.73;9.98;;;;;;;;;;5105579;28;20043;-69
2023/05/13 00:59:42;;;;;;;15.90;9.32;;;;;;;;;;5095903;27;20068;-69
2023/05/13 01:02:13;;;;;;;20.20;9.93;;;;;;;;;;5099215;27;20074;-69
2023/05/13 01:05:01;;;;;;;16.20;10.65;;;;;;;;;;5092793;27;20492;-69
2023/05/13 01:07:45;;;;;;;18.33;10.00;;;;;;;;;;5104064;28;20088;-69
2023/05/13 01:10:38;;;;;;;16.98;10.73;;;;;;;;;;5104454;28;20042;-69
2023/05/13 01:13:10;;;;;;;14.70;9.63;;;;;;;;;;5096134;28;20049;-69
2023/05/13 01:15:42;;;;;;;17.25;10.43;;;;;;;;;;5104747;27;20286;-69
2023/05/13 01:18:13;;;;;;;18.80;10.00;;;;;;;;;;5104571;27;20032;-69
2023/05/13 01:20:43;;;;;;;17.48;9.88;;;;;;;;;;5098546;28;20028;-69
2023/05/13 01:23:10;;;;;;;16.05;10.00;;;;;;;;;;5089166;28;20480;-69
2023/05/13 01:25:37;;;;;;;17.58;9.68;;;;;;;;;;5093926;27;20031;-69
2023/05/13 01:28:03;;;;;;;19.95;10.27;;;;;;;;;;5105848;28;20106;-69
2023/05/13 01:30:29;;;;;;;17.33;10.23;;;;;;;;;;5104593;27;20169;-69
2023/05/13 01:32:55;;;;;;;16.80;10.85;;;;;;;;;;5105374;27;20039;-69
2023/05/13 01:35:23;;;;;;;17.23;10.05;;;;;;;;;;5104760;27;20024;-69
2023/05/13 01:37:49;;;;;;;18.02;10.68;;;;;;;;;;5111736;27;20035;-69
2023/05/13 01:40:15;;;;;;;17.52;10.75;;;;;;;;;;5089107;27;20027;-69
2023/05/13 01:42:41;;;;;;;16.77;10.23;;;;;;;;;;5092005;27;20035;-69
2023/05/13 01:45:07;;;;;;;20.25;12.07;;;;;;;;;;5088602;28;20243;-69
2023/05/13 01:47:33;;;;;;;20.13;12.27;;;;;;;;;;5088486;28;20595;-69
2023/05/13 01:49:58;;;;;;;22.48;13.15;;;;;;;;;;5092406;28;20085;-69
2023/05/13 01:52:23;;;;;;;24.48;13.18;;;;;;;;;;5095349;28;20490;-69
2023/05/13 01:54:49;;;;;;;24.55;13.20;;;;;;;;;;5089844;28;20062;-69
2023/05/13 01:57:14;;;;;;;23.95;13.65;;;;;;;;;;5103315;28;20028;-69
2023/05/13 01:59:40;;;;;;;24.48;14.15;;;;;;;;;;5101469;27;20093;-69
2023/05/13 02:02:05;;;;;;;26.52;14.88;;;;;;;;;;5093863;27;20046;-69
2023/05/13 02:04:31;;;;;;;30.65;14.68;;;;;;;;;;5084987;27;20047;-69
2023/05/13 02:06:56;;;;;;;28.20;14.98;;;;;;;;;;5104279;28;20028;-69
2023/05/13 02:09:21;;;;;;;26.30;14.80;;;;;;;;;;5109930;27;20039;-69
2023/05/13 02:11:47;;;;;;;26.10;13.93;;;;;;;;;;5116342;27;20039;-69
2023/05/13 02:14:12;;;;;;;27.23;14.48;;;;;;;;;;5107545;27;20047;-69
2023/05/13 02:16:37;;;;;;;35.63;17.02;;;;;;;;;;5097002;28;20020;-69
2023/05/13 02:19:03;;;;;;;38.95;17.98;;;;;;;;;;5091299;28;20023;-69
2023/05/13 02:21:28;;;;;;;34.17;17.50;;;;;;;;;;5097619;28;20104;-69
2023/05/13 02:23:54;;;;;;;35.00;18.80;;;;;;;;;;5103282;28;20039;-69
2023/05/13 02:26:19;;;;;;;40.35;20.08;;;;;;;;;;5097961;28;20028;-69
2023/05/13 02:28:45;;;;;;;38.63;18.77;;;;;;;;;;5102953;27;20028;-69
2023/05/13 02:31:10;;;;;;;39.67;20.90;;;;;;;;;;5105237;28;20110;-69
2023/05/13 02:33:35;;;;;;;40.10;21.15;;;;;;;;;;5103723;27;20028;-69
2023/05/13 02:36:01;;;;;;;39.90;20.85;;;;;;;;;;5108202;28;20084;-69
2023/05/13 02:38:26;;;;;;;45.80;21.33;;;;;;;;;;5100634;27;20612;-69
2023/05/13 02:40:52;;;;;;;48.65;22.52;;;;;;;;;;5096118;27;20552;-69
2023/05/13 02:43:18;;;;;;;47.10;22.90;;;;;;;;;;5097650;28;20035;-69
2023/05/13 02:45:43;;;;;;;46.58;22.60;;;;;;;;;;5098261;27;20082;-69
2023/05/13 02:48:09;;;;;;;47.83;22.50;;;;;;;;;;5104736;28;20793;-69
2023/05/13 02:50:35;;;;;;;45.05;21.38;;;;;;;;;;5108145;27;20032;-69
2023/05/13 02:53:01;;;;;;;45.97;22.60;;;;;;;;;;5107936;27;20031;-69
2023/05/13 02:55:26;;;;;;;44.88;22.10;;;;;;;;;;5108430;28;20038;-69
2023/05/13 02:57:51;;;;;;;50.17;22.90;;;;;;;;;;5107225;27;20042;-69
2023/05/13 03:00:17;;;;;;;50.42;23.38;;;;;;;;;;5102138;27;20065;-69
2023/05/13 03:02:42;;;;;;;44.42;22.85;;;;;;;;;;5103165;27;20055;-69
2023/05/13 03:05:08;;;;;;;53.20;24.42;;;;;;;;;;5101719;27;20035;-69
2023/05/13 03:07:35;;;;;;;53.75;25.98;;;;;;;;;;5103998;27;20055;-69
2023/05/13 03:10:00;;;;;;;53.95;25.08;;;;;;;;;;5108210;28;20034;-69
2023/05/13 03:12:25;;;;;;;55.47;25.25;;;;;;;;;;5107026;27;20101;-69
2023/05/13 03:14:51;;;;;;;50.45;24.60;;;;;;;;;;5095844;28;20035;-69
2023/05/13 03:17:16;;;;;;;50.55;25.45;;;;;;;;;;5104384;27;20092;-69
2023/05/13 03:19:41;;;;;;;49.47;24.45;;;;;;;;;;5093732;27;20089;-69
2023/05/13 03:22:07;;;;;;;52.03;26.23;;;;;;;;;;5099166;27;20055;-69
2023/05/13 03:24:32;;;;;;;59.03;25.08;;;;;;;;;;5096384;27;20084;-69
2023/05/13 03:26:58;;;;;;;54.60;26.15;;;;;;;;;;5106657;27;20067;-69
2023/05/13 03:29:23;;;;;;;58.63;25.40;;;;;;;;;;5095063;27;20043;-68
2023/05/13 03:31:49;;;;;;;55.47;26.90;;;;;;;;;;5111008;27;20032;-69
2023/05/13 03:34:15;;;;;;;51.92;25.35;;;;;;;;;;5116727;28;20061;-69
2023/05/13 03:36:40;;;;;;;57.33;26.35;;;;;;;;;;5114710;27;20032;-69
2023/05/13 03:39:06;;;;;;;57.22;26.65;;;;;;;;;;5088612;28;20039;-69
2023/05/13 03:41:32;;;;;;;57.25;26.55;;;;;;;;;;5103412;27;20028;-69
2023/05/13 03:43:57;;;;;;;62.40;27.80;;;;;;;;;;5107119;27;20027;-69
2023/05/13 03:46:22;;;;;;;57.95;26.83;;;;;;;;;;5107116;28;20058;-69
2023/05/13 03:48:48;;;;;;;58.40;26.35;;;;;;;;;;5104160;28;20076;-69
2023/05/13 03:51:14;;;;;;;58.03;26.70;;;;;;;;;;5100334;27;20035;-69
2023/05/13 03:53:39;;;;;;;58.35;26.58;;;;;;;;;;5105217;28;20027;-69
2023/05/13 03:56:05;;;;;;;61.13;27.42;;;;;;;;;;5106691;27;20402;-69
2023/05/13 03:58:30;;;;;;;59.10;26.35;;;;;;;;;;5106173;28;20019;-69
2023/05/13 04:00:56;;;;;;;57.53;25.80;;;;;;;;;;5105400;28;20121;-69
2023/05/13 04:03:21;;;;;;;60.97;26.70;;;;;;;;;;5104528;28;20641;-69
2023/05/13 04:05:48;;;;;;;61.25;27.75;;;;;;;;;;5106063;27;20039;-69
2023/05/13 04:08:14;;;;;;;56.05;25.63;;;;;;;;;;5105727;28;20030;-69
2023/05/13 04:10:39;;;;;;;58.45;26.63;;;;;;;;;;5105980;27;20098;-69
2023/05/13 04:13:04;;;;;;;55.10;26.35;;;;;;;;;;5106646;28;20007;-69
2023/05/13 04:15:33;;;;;;;59.05;27.13;;;;;;;;;;5106531;27;20585;-69
2023/05/13 04:17:58;;;;;;;55.92;27.60;;;;;;;;;;5106631;27;20035;-69
2023/05/13 04:20:24;;;;;;;61.80;26.40;;;;;;;;;;5104979;27;20113;-69
2023/05/13 04:22:50;;;;;;;59.20;26.13;;;;;;;;;;5099103;27;20038;-69
2023/05/13 04:25:16;;;;;;;58.92;26.48;;;;;;;;;;5105324;28;20018;-69
2023/05/13 04:27:41;;;;;;;58.35;27.33;;;;;;;;;;5096110;27;20024;-69
2023/05/13 04:30:07;;;;;;;53.95;26.17;;;;;;;;;;5092158;28;20114;-69
2023/05/13 04:32:33;;;;;;;55.80;26.65;;;;;;;;;;5105355;27;20031;-69
2023/05/13 04:34:58;;;;;;;59.30;26.08;;;;;;;;;;5105377;27;20057;-69
2023/05/13 04:37:23;;;;;;;59.75;26.30;;;;;;;;;;5108266;27;20019;-69
2023/05/13 04:39:49;;;;;;;57.70;25.77;;;;;;;;;;5090504;27;20024;-69
2023/05/13 04:42:15;;;;;;;58.80;26.90;;;;;;;;;;5099975;27;20138;-69
2023/05/13 04:44:41;;;;;;;55.30;27.25;;;;;;;;;;5105260;27;20016;-69
2023/05/13 04:47:06;;;;;;;60.25;28.02;;;;;;;;;;5106480;27;20057;-69
2023/05/13 04:49:32;;;;;;;57.75;27.15;;;;;;;;;;5106237;27;20042;-69
2023/05/13 04:51:58;;;;;;;58.38;25.42;;;;;;;;;;5106570;28;20447;-69
2023/05/13 04:54:23;;;;;;;58.90;26.30;;;;;;;;;;5107784;27;20519;-69
2023/05/13 04:56:48;;;;;;;57.38;25.83;;;;;;;;;;5112191;28;20044;-69
2023/05/13 04:59:14;;;;;;;55.30;26.83;;;;;;;;;;5114469;27;20055;-69
2023/05/13 05:01:39;;;;;;;54.90;25.85;;;;;;;;;;5105915;27;20496;-69
2023/05/13 05:04:05;;;;;;;50.58;24.48;;;;;;;;;;5105988;28;20015;-69
2023/05/13 05:06:31;;;;;;;52.00;25.92;;;;;;;;;;5103917;28;20032;-69
2023/05/13 05:08:57;;;;;;;60.22;26.38;;;;;;;;;;5105002;27;20516;-69
2023/05/13 05:11:22;;;;;;;50.13;25.40;;;;;;;;;;5099388;27;20112;-69
2023/05/13 05:13:48;;;;;;;52.05;24.77;;;;;;;;;;5105039;27;20161;-69
2023/05/13 05:16:13;;;;;;;49.05;24.10;;;;;;;;;;5105840;28;20075;-69
2023/05/13 05:18:40;;;;;;;46.25;24.42;;;;;;;;;;5104608;27;20035;-69
2023/05/13 05:21:05;;;;;;;47.50;23.42;;;;;;;;;;5105697;27;20049;-69
2023/05/13 05:23:31;;;;;;;51.22;25.50;;;;;;;;;;5110788;27;20650;-70
2023/05/13 05:25:58;;;;;;;48.67;23.05;;;;;;;;;;5099392;27;20036;-69
2023/05/13 05:28:24;;;;;;;46.78;23.38;;;;;;;;;;5104260;28;20023;-69
2023/05/13 05:30:50;;;;;;;49.97;24.42;;;;;;;;;;5105425;27;20084;-69
2023/05/13 05:33:15;;;;;;;51.45;23.80;;;;;;;;;;5100267;28;20089;-69
2023/05/13 05:35:41;;;;;;;42.83;22.30;;;;;;;;;;5100392;27;20035;-69
2023/05/13 05:38:07;;;;;;;48.95;23.10;;;;;;;;;;5113036;27;20028;-69
2023/05/13 05:40:35;;;;;;;44.25;23.33;;;;;;;;;;5103852;27;20028;-69
2023/05/13 05:43:01;;;;;;;43.92;21.55;;;;;;;;;;5104776;28;20024;-69
2023/05/13 05:45:27;;;;;;;42.88;21.95;;;;;;;;;;5099572;27;20024;-69
2023/05/13 05:47:54;;;;;;;45.05;22.23;;;;;;;;;;5089311;28;20089;-69
2023/05/13 05:50:19;;;;;;;44.20;22.52;;;;;;;;;;5085300;28;20109;-69
2023/05/13 05:52:45;;;;;;;43.15;22.15;;;;;;;;;;5102141;27;20591;-69
2023/05/13 05:55:10;;;;;;;43.85;21.58;;;;;;;;;;5105198;28;20243;-69
2023/05/13 05:57:35;;;;;;;41.03;21.38;;;;;;;;;;5104379;27;20047;-69
2023/05/13 06:00:01;;;;;;;37.63;18.65;;;;;;;;;;5105096;28;20044;-69
2023/05/13 06:02:26;;;;;;;36.97;20.15;;;;;;;;;;5103021;27;20027;-69
2023/05/13 06:04:51;;;;;;;38.72;21.08;;;;;;;;;;5095278;28;20059;-69
2023/05/13 06:07:17;;;;;;;38.90;20.27;;;;;;;;;;5094559;28;20028;-69
2023/05/13 06:09:42;;;;;;;44.08;20.35;;;;;;;;;;5087978;28;20123;-69
2023/05/13 06:12:08;;;;;;;37.92;20.05;;;;;;;;;;5104753;27;20092;-69
2023/05/13 06:14:33;;;;;;;35.53;18.58;;;;;;;;;;5103610;28;20500;-69
2023/05/13 06:16:59;;;;;;;34.60;19.67;;;;;;;;;;5106850;27;20053;-69
2023/05/13 06:19:24;;;;;;;34.03;18.63;;;;;;;;;;5111261;28;20035;-70
2023/05/13 06:21:49;;;;;;;32.58;18.92;;;;;;;;;;5114119;27;20456;-69
2023/05/13 06:24:15;;;;;;;34.70;18.05;;;;;;;;;;5105950;28;20057;-69
2023/05/13 06:26:40;;;;;;;42.67;21.08;;;;;;;;;;5107695;27;20032;-69
2023/05/13 06:29:06;;;;;;;33.55;18.20;;;;;;;;;;5108366;27;20054;-69
2023/05/13 06:31:31;;;;;;;31.38;16.98;;;;;;;;;;5108781;27;20479;-69
2023/05/13 06:33:56;;;;;;;29.90;17.50;;;;;;;;;;5102215;28;20083;-69
2023/05/13 06:36:22;;;;;;;30.27;16.05;;;;;;;;;;5114505;27;20042;-69
2023/05/13 06:38:47;;;;;;;32.05;16.58;;;;;;;;;;5102717;27;20588;-69
2023/05/13 06:41:14;;;;;;;26.35;14.82;;;;;;;;;;5106536;27;20031;-69
2023/05/13 06:43:40;;;;;;;28.48;15.15;;;;;;;;;;5107093;27;20030;-69
2023/05/13 06:46:05;;;;;;;26.88;14.48;;;;;;;;;;5107502;28;20016;-69
2023/05/13 06:48:30;;;;;;;31.35;15.45;;;;;;;;;;5107389;27;20516;-69
2023/05/13 06:50:56;;;;;;;24.27;14.60;;;;;;;;;;5104412;28;20054;-69
2023/05/13 06:53:21;;;;;;;24.98;14.27;;;;;;;;;;5101759;28;20028;-69
2023/05/13 06:55:47;;;;;;;23.95;14.02;;;;;;;;;;5105131;27;21169;-69
2023/05/13 06:58:12;;;;;;;24.58;14.70;;;;;;;;;;5103377;28;20109;-69
2023/05/13 07:00:39;;;;;;;27.27;14.55;;;;;;;;;;5105369;27;20048;-69
2023/05/13 07:03:05;;;;;;;25.27;13.88;;;;;;;;;;5104385;28;20441;-69
2023/05/13 07:05:33;;;;;;;27.75;13.98;;;;;;;;;;5103076;27;20042;-69
2023/05/13 07:07:59;;;;;;;25.23;13.77;;;;;;;;;;5103950;28;20081;-69
2023/05/13 07:10:24;;;;;;;25.35;14.25;;;;;;;;;;5106866;28;20027;-69
2023/05/13 07:12:50;;;;;;;22.42;14.13;;;;;;;;;;5105915;28;20027;-69
2023/05/13 07:15:15;;;;;;;20.88;12.60;;;;;;;;;;5104136;28;20080;-69
2023/05/13 07:17:41;;;;;;;21.92;13.45;;;;;;;;;;5091205;27;20409;-69
2023/05/13 07:20:08;;;;;;;22.23;13.00;;;;;;;;;;5096693;27;20532;-69
2023/05/13 07:22:34;;;;;;;21.80;12.40;;;;;;;;;;5100253;27;20578;-70
2023/05/13 07:25:00;;;;;;;22.40;12.50;;;;;;;;;;5093782;27;20022;-69
2023/05/13 07:27:25;;;;;;;21.42;12.57;;;;;;;;;;5096056;27;20027;-69
2023/05/13 07:29:50;;;;;;;19.42;12.65;;;;;;;;;;5098204;27;20027;-68
2023/05/13 07:32:16;;;;;;;19.80;11.80;;;;;;;;;;5096345;27;20436;-69
2023/05/13 07:34:41;;;;;;;19.80;12.55;;;;;;;;;;5097503;27;20027;-69
2023/05/13 07:37:07;;;;;;;20.92;13.23;;;;;;;;;;5101193;27;20110;-70
2023/05/13 07:39:32;;;;;;;18.85;12.75;;;;;;;;;;5093738;27;20035;-69
2023/05/13 07:41:57;;;;;;;20.58;13.30;;;;;;;;;;5113596;27;20065;-69
2023/05/13 07:44:23;;;;;;;18.05;11.35;;;;;;;;;;5115197;28;20093;-70
2023/05/13 07:46:52;;;;;;;16.80;10.98;;;;;;;;;;5107614;28;20080;-70
2023/05/13 07:49:17;;;;;;;16.95;11.60;;;;;;;;;;5106122;28;20062;-69
2023/05/13 07:51:42;;;;;;;18.92;11.40;;;;;;;;;;5099609;27;20064;-69
2023/05/13 07:54:09;;;;;;;18.65;11.13;;;;;;;;;;5100855;27;20615;-69
2023/05/13 07:56:34;;;;;;;18.70;10.90;;;;;;;;;;5096425;27;20054;-69
2023/05/13 07:59:00;;;;;;;17.75;10.75;;;;;;;;;;5098789;27;20593;-69
2023/05/13 08:01:26;;;;;;;18.00;11.07;;;;;;;;;;5098875;28;20414;-69
2023/05/13 08:03:51;;;;;;;17.45;11.50;;;;;;;;;;5103744;28;20047;-69
2023/05/13 08:06:16;;;;;;;16.15;9.90;;;;;;;;;;5097120;27;20083;-69
2023/05/13 08:08:42;;;;;;;15.77;10.13;;;;;;;;;;5093993;27;20968;-69
2023/05/13 08:11:07;;;;;;;17.25;9.18;;;;;;;;;;5081950;28;20115;-69
2023/05/13 08:13:32;;;;;;;18.45;11.45;;;;;;;;;;5079923;27;20039;-69
2023/05/13 08:16:02;;;;;;;16.98;10.93;;;;;;;;;;5100116;27;20095;-69
2023/05/13 08:18:28;;;;;;;17.13;10.98;;;;;;;;;;5089321;27;20036;-69
2023/05/13 08:20:53;;;;;;;23.67;11.38;;;;;;;;;;5093977;27;20814;-69
2023/05/13 08:23:18;;;;;;;18.30;11.68;;;;;;;;;;5096241;28;20039;-69
2023/05/13 08:25:44;;;;;;;16.08;10.75;;;;;;;;;;5104863;27;20043;-69
2023/05/13 08:28:09;;;;;;;17.17;11.32;;;;;;;;;;5105530;28;20036;-69
2023/05/13 08:30:35;;;;;;;20.77;11.80;;;;;;;;;;5104592;27;20053;-69
2023/05/13 08:33:00;;;;;;;19.05;10.90;;;;;;;;;;5104841;27;20031;-69
2023/05/13 08:35:26;;;;;;;14.60;8.82;;;;;;;;;;5104504;27;20089;-69
2023/05/13 08:37:51;;;;;;;17.55;10.95;;;;;;;;;;5113010;27;20046;-69
2023/05/13 08:40:17;;;;;;;18.75;10.95;;;;;;;;;;5094332;28;20028;-69
2023/05/13 08:42:46;;;;;;;16.70;10.10;;;;;;;;;;5102693;28;20070;-70
2023/05/13 08:45:13;;;;;;;16.70;10.48;;;;;;;;;;5103810;27;20038;-70
2023/05/13 08:47:44;;;;;;;16.02;10.80;;;;;;;;;;5094698;27;20645;-70
2023/05/13 08:50:11;;;;;;;17.02;10.18;;;;;;;;;;5096616;27;20040;-69
2023/05/13 08:52:36;;;;;;;15.20;10.13;;;;;;;;;;5104606;27;20031;-69
2023/05/13 08:55:03;;;;;;;16.48;11.15;;;;;;;;;;5102777;28;20025;-69
2023/05/13 08:57:30;;;;;;;15.73;10.00;;;;;;;;;;5099873;27;20088;-69
2023/05/13 08:59:55;;;;;;;18.15;10.25;;;;;;;;;;5098013;28;20565;-69
2023/05/13 09:02:21;;;;;;;14.32;10.07;;;;;;;;;;5105620;27;20127;-69
2023/05/13 09:04:52;;;;;;;16.33;10.00;;;;;;;;;;5110856;27;20027;-69
2023/05/13 09:07:17;;;;;;;14.00;9.98;;;;;;;;;;5106014;28;20148;-69
2023/05/13 09:09:43;;;;;;;19.60;9.68;;;;;;;;;;5104784;27;20520;-69
2023/05/13 09:12:08;;;;;;;14.45;9.38;;;;;;;;;;5103342;27;20027;-70
2023/05/13 09:14:36;;;;;;;16.40;8.75;;;;;;;;;;5104879;27;20081;-70
2023/05/13 09:17:01;;;;;;;15.43;10.02;;;;;;;;;;5104078;27;20028;-70
2023/05/13 09:19:27;;;;;;;14.25;9.13;;;;;;;;;;5102935;28;20030;-68
2023/05/13 09:21:52;;;;;;;15.93;9.57;;;;;;;;;;5099685;27;20127;-69
2023/05/13 09:24:20;;;;;;;16.23;9.20;;;;;;;;;;5096522;27;20038;-69
2023/05/13 09:26:47;;;;;;;15.70;8.80;;;;;;;;;;5103132;27;20032;-69
2023/05/13 09:29:20;;;;;;;13.63;9.18;;;;;;;;;;5104255;27;20596;-70
2023/05/13 09:31:48;;;;;;;14.82;8.98;;;;;;;;;;5095378;27;20020;-70
2023/05/13 09:34:22;;;;;;;12.27;8.70;;;;;;;;;;5096611;28;20023;-69
2023/05/13 09:36:54;;;;;;;12.02;8.38;;;;;;;;;;5106735;27;20034;-70
2023/05/13 09:39:20;;;;;;;15.90;8.32;;;;;;;;;;5092025;27;20035;-70
2023/05/13 09:41:45;;;;;;;11.02;6.95;;;;;;;;;;5102557;27;20031;-70
2023/05/13 09:44:12;;;;;;;13.70;8.68;;;;;;;;;;5098153;28;20459;-70
2023/05/13 09:46:37;;;;;;;11.98;7.95;;;;;;;;;;5097877;27;20409;-69
2023/05/13 09:49:03;;;;;;;16.75;8.90;;;;;;;;;;5101678;28;20806;-70
2023/05/13 09:51:29;;;;;;;12.43;9.32;;;;;;;;;;5098903;27;20036;-70
2023/05/13 09:54:05;;;;;;;14.93;9.80;;;;;;;;;;5102507;27;20024;-69
2023/05/13 09:56:33;;;;;;;13.00;9.32;;;;;;;;;;5104131;28;20042;-70
2023/05/13 09:58:59;;;;;;;12.77;9.63;;;;;;;;;;5108288;27;20020;-70
2023/05/13 10:01:27;;;;;;;21.05;10.10;;;;;;;;;;5108726;28;20047;-70
2023/05/13 10:03:54;;;;;;;16.70;10.65;;;;;;;;;;5108492;27;20176;-70
2023/05/13 10:06:23;;;;;;;17.88;10.25;;;;;;;;;;5099782;27;20043;-70
2023/05/13 10:08:52;;;;;;;13.55;9.68;;;;;;;;;;5100291;27;20122;-69
2023/05/13 10:11:18;;;;;;;16.90;10.10;;;;;;;;;;5109072;27;20035;-70
2023/05/13 10:13:49;;;;;;;17.17;11.18;;;;;;;;;;5097998;27;20036;-69
2023/05/13 10:16:17;;;;;;;16.95;10.88;;;;;;;;;;5104494;27;20040;-69
2023/05/13 10:18:42;;;;;;;17.65;10.50;;;;;;;;;;5098511;27;20032;-70
2023/05/13 10:21:08;;;;;;;15.27;10.27;;;;;;;;;;5096443;27;20791;-70
2023/05/13 10:23:34;;;;;;;19.00;11.27;;;;;;;;;;5093903;28;20035;-70
2023/05/13 10:26:00;;;;;;;18.30;10.82;;;;;;;;;;5107310;27;20114;-70
2023/05/13 10:28:26;;;;;;;16.10;10.88;;;;;;;;;;5111008;27;20636;-70
2023/05/13 10:30:52;;;;;;;18.13;11.32;;;;;;;;;;5108561;27;20070;-70
2023/05/13 10:33:18;;;;;;;22.13;11.82;;;;;;;;;;5101586;27;20059;-70
2023/05/13 10:36:10;;;;;;;17.15;11.85;;;;;;;;;;5100069;27;20062;-70
2023/05/13 10:38:52;;;;;;;20.65;13.48;;;;;;;;;;5092518;27;20043;-69
2023/05/13 10:41:51;;;;;;;19.42;12.45;;;;;;;;;;5098774;27;20039;-70
2023/05/13 10:44:19;;;;;;;20.95;12.85;;;;;;;;;;5098101;27;20040;-70
2023/05/13 10:46:48;;;;;;;20.73;12.73;;;;;;;;;;5105836;27;20083;-70
2023/05/13 10:49:16;;;;;;;21.92;13.82;;;;;;;;;;5102432;27;20019;-70
2023/05/13 10:51:47;;;;;;;24.45;14.25;;;;;;;;;;5093384;27;20112;-69
2023/05/13 10:54:20;;;;;;;22.92;16.05;;;;;;;;;;5086499;28;20800;-70
2023/05/13 10:56:56;;;;;;;25.20;13.57;;;;;;;;;;5086648;27;20067;-70
2023/05/13 10:59:22;;;;;;;24.52;15.45;;;;;;;;;;5090280;27;20039;-70
2023/05/13 11:01:47;;;;;;;21.05;13.35;;;;;;;;;;5109810;27;20110;-70
2023/05/13 11:04:14;;;;;;;22.45;13.65;;;;;;;;;;5101415;27;20037;-70
2023/05/13 11:06:42;;;;;;;19.90;13.40;;;;;;;;;;5102361;27;20031;-70
2023/05/13 11:09:11;;;;;;;22.70;14.35;;;;;;;;;;5091465;27;20078;-70
2023/05/13 11:11:37;;;;;;;24.88;14.00;;;;;;;;;;5102551;27;20698;-70
2023/05/13 11:14:15;;;;;;;23.40;13.55;;;;;;;;;;5095671;27;20032;-70
2023/05/13 11:16:47;;;;;;;21.45;13.20;;;;;;;;;;5097788;27;20034;-71
2023/05/13 11:19:26;;;;;;;24.92;14.02;;;;;;;;;;5102568;27;20067;-71
2023/05/13 11:21:56;;;;;;;23.45;13.95;;;;;;;;;;5091337;28;20050;-71
2023/05/13 11:24:23;;;;;;;22.70;14.50;;;;;;;;;;5106026;27;20040;-70
2023/05/13 11:26:56;;;;;;;23.00;13.95;;;;;;;;;;5099842;27;20638;-71
2023/05/13 11:29:30;;;;;;;20.55;13.35;;;;;;;;;;5099637;27;20069;-70
2023/05/13 11:31:57;;;;;;;22.45;14.75;;;;;;;;;;5101521;27;20180;-70
2023/05/13 11:34:23;;;;;;;20.48;15.18;;;;;;;;;;5099436;27;20041;-70
2023/05/13 11:36:55;;;;;;;26.13;15.07;;;;;;;;;;5099395;27;20409;-70
2023/05/13 11:39:27;;;;;;;19.85;13.82;;;;;;;;;;5098078;27;20047;-72
2023/05/13 11:41:53;;;;;;;26.83;15.10;;;;;;;;;;5099094;27;20036;-70
2023/05/13 11:44:23;;;;;;;21.33;13.32;;;;;;;;;;5094490;27;20762;-70
2023/05/13 11:46:56;;;;;;;21.50;14.45;;;;;;;;;;5098942;27;20043;-70
2023/05/13 11:49:38;;;;;;;23.65;14.18;;;;;;;;;;5114576;27;20432;-70
2023/05/13 11:52:06;;;;;;;24.85;15.15;;;;;;;;;;5111330;27;20041;-70
2023/05/13 11:54:42;;;;;;;23.92;13.57;;;;;;;;;;5108764;27;20036;-70
2023/05/13 11:57:17;;;;;;;19.95;13.43;;;;;;;;;;5100563;27;20063;-70
2023/05/13 11:59:53;;;;;;;22.77;14.23;;;;;;;;;;5097195;27;21962;-70
2023/05/13 12:02:39;;;;;;;22.85;15.00;;;;;;;;;;5104622;28;20040;-70
2023/05/13 12:05:08;;;;;;;21.92;14.40;;;;;;;;;;5106043;27;20498;-70
2023/05/13 12:07:34;;;;;;;30.85;25.10;;;;;;;;;;5103277;27;20504;-70
2023/05/13 12:10:02;;;;;;;22.58;14.07;;;;;;;;;;5106977;28;20031;-70
2023/05/13 12:12:28;;;;;;;23.73;15.45;;;;;;;;;;5103706;27;20084;-70
2023/05/13 12:14:59;;;;;;;28.67;15.98;;;;;;;;;;5103742;27;20034;-70
2023/05/13 12:17:25;;;;;;;28.73;15.20;;;;;;;;;;5099794;28;20084;-70
2023/05/13 12:20:16;;;;;;;22.88;13.80;;;;;;;;;;5103938;27;20036;-70
2023/05/13 12:22:41;;;;;;;24.38;14.35;;;;;;;;;;5105704;27;20092;-70
2023/05/13 12:25:35;;;;;;;22.77;14.40;;;;;;;;;;5105277;28;20062;-70
2023/05/13 12:28:20;;;;;;;25.55;15.05;;;;;;;;;;5093491;28;20036;-70
2023/05/13 12:30:53;;;;;;;25.50;14.18;;;;;;;;;;5104245;28;20028;-70
2023/05/13 12:33:21;;;;;;;24.10;15.07;;;;;;;;;;5104944;27;20559;-70
2023/05/13 12:35:49;;;;;;;26.27;15.18;;;;;;;;;;5107884;27;20487;-70
2023/05/13 12:38:16;;;;;;;21.67;13.95;;;;;;;;;;5110447;27;20028;-70
2023/05/13 12:40:46;;;;;;;25.40;14.82;;;;;;;;;;5097264;27;20481;-70
2023/05/13 12:43:12;;;;;;;23.00;14.85;;;;;;;;;;5107168;27;20024;-70
2023/05/13 12:45:41;;;;;;;24.25;14.18;;;;;;;;;;5103783;27;20035;-69
2023/05/13 12:48:07;;;;;;;29.40;16.15;;;;;;;;;;5107780;27;20070;-70
2023/05/13 12:50:33;;;;;;;29.50;17.00;;;;;;;;;;5098925;27;20176;-69
2023/05/13 12:52:59;;;;;;;24.50;14.07;;;;;;;;;;5105866;27;20019;-70
2023/05/13 12:55:27;;;;;;;24.38;14.80;;;;;;;;;;5099157;27;20024;-70
2023/05/13 12:58:02;;;;;;;25.80;14.90;;;;;;;;;;5102540;27;20049;-70
2023/05/13 13:00:29;;;;;;;27.00;16.40;;;;;;;;;;5102676;28;20543;-70
2023/05/13 13:02:55;;;;;;;23.50;14.85;;;;;;;;;;5101815;27;20083;-70
2023/05/13 13:05:22;;;;;;;24.60;14.45;;;;;;;;;;5098695;28;20047;-70
2023/05/13 13:07:48;;;;;;;22.63;14.85;;;;;;;;;;5104929;28;20034;-70
2023/05/13 13:10:13;;;;;;;24.52;15.20;;;;;;;;;;5104568;28;20015;-70
2023/05/13 13:12:39;;;;;;;25.50;13.80;;;;;;;;;;5105177;27;20031;-70
2023/05/13 13:15:05;;;;;;;22.13;14.18;;;;;;;;;;5104415;27;20036;-70
2023/05/13 13:17:31;;;;;;;26.17;16.25;;;;;;;;;;5102244;27;20038;-70
2023/05/13 13:19:56;;;;;;;23.67;14.60;;;;;;;;;;5094650;27;20036;-70
2023/05/13 13:22:22;;;;;;;24.02;15.00;;;;;;;;;;5100675;28;20036;-70
2023/05/13 13:24:47;;;;;;;23.15;15.63;;;;;;;;;;5101332;28;20028;-71
2023/05/13 13:27:12;;;;;;;22.02;15.70;;;;;;;;;;5095784;28;20150;-70
2023/05/13 13:29:38;;;;;;;24.23;14.68;;;;;;;;;;5088518;27;20040;-71
2023/05/13 13:32:04;;;;;;;26.63;15.80;;;;;;;;;;5092949;27;20039;-70
2023/05/13 13:34:29;;;;;;;23.92;14.52;;;;;;;;;;5097329;28;20095;-71
2023/05/13 13:36:54;;;;;;;26.52;14.73;;;;;;;;;;5102957;27;20019;-70
2023/05/13 13:39:20;;;;;;;23.38;14.60;;;;;;;;;;5093121;28;20043;-71
2023/05/13 13:41:46;;;;;;;24.83;14.90;;;;;;;;;;5103662;27;20047;-70
2023/05/13 13:44:12;;;;;;;27.73;15.75;;;;;;;;;;5104866;28;20412;-70
2023/05/13 13:46:37;;;;;;;25.10;15.65;;;;;;;;;;5100552;27;20028;-70
2023/05/13 13:49:02;;;;;;;24.08;15.52;;;;;;;;;;5097282;28;20031;-70
2023/05/13 13:51:28;;;;;;;25.80;15.52;;;;;;;;;;5103848;28;20539;-70
2023/05/13 13:53:53;;;;;;;29.13;16.73;;;;;;;;;;5101468;28;20413;-70
2023/05/13 13:56:19;;;;;;;27.45;16.45;;;;;;;;;;5103297;28;20578;-70
2023/05/13 13:58:45;;;;;;;30.42;17.85;;;;;;;;;;5096056;28;20051;-71
2023/05/13 14:01:10;;;;;;;32.97;14.93;;;;;;;;;;5089213;28;20229;-70
2023/05/13 14:03:35;;;;;;;23.35;14.85;;;;;;;;;;5092406;27;20066;-70
2023/05/13 14:06:01;;;;;;;24.15;15.52;;;;;;;;;;5088069;28;20767;-70
2023/05/13 14:08:26;;;;;;;23.30;14.93;;;;;;;;;;5095262;27;20474;-70
2023/05/13 14:10:52;;;;;;;23.02;14.38;;;;;;;;;;5096925;27;20040;-70
2023/05/13 14:13:17;;;;;;;30.65;18.17;;;;;;;;;;5104449;28;20032;-70
2023/05/13 14:15:43;;;;;;;26.52;16.38;;;;;;;;;;5100437;28;20067;-70
2023/05/13 14:18:08;;;;;;;23.13;15.57;;;;;;;;;;5088148;28;20504;-70